WetterOnline ( https://www.wetteronline.ch )

Wetter aktuell Altmark

Aktuelles Wetter: Gardelegen (48m)

6-stündlich | Neueste Meldungen
Ortszeit Temperatur Wetter
Fr, 06.12. 19:00 4.6° C Regen
Fr, 06.12. 13:00 5.2° C Sprühregen
Fr, 06.12. 7:00 4.0° C leichter Regen
Fr, 06.12. 1:00 -0.2° C -
Do, 05.12. 19:00 1.3° C wolkig
Do, 05.12. 13:00 4.6° C wolkenlos
Do, 05.12. 7:00 -3.5° C wolkenlos
Do, 05.12. 1:00 -2.3° C wolkenlos
Ortszeit Temperatur Wetter
Fr, 06.12. 21:00 4.8° C leichter Regen
Fr, 06.12. 20:40 4.8° C bewölkt
Fr, 06.12. 20:30 4.8° C bedeckt
Fr, 06.12. 20:20 4.8° C bedeckt
Fr, 06.12. 20:10 4.7° C bedeckt
Fr, 06.12. 20:00 4.8° C bedeckt
Fr, 06.12. 19:50 4.8° C bedeckt
Fr, 06.12. 19:30 4.6° C leichter Regen
Fr, 06.12. 19:00 4.6° C Regen
Ortszeit Relative Feuchte Sichtweite
Fr, 06.12. 19:00 94% 23 km
Fr, 06.12. 13:00 93% 16 km
Fr, 06.12. 7:00 78% 23 km
Fr, 06.12. 1:00 84% 28 km
Do, 05.12. 19:00 83% 26 km
Do, 05.12. 13:00 71% 30 km
Do, 05.12. 7:00 93% 8 km
Do, 05.12. 1:00 96% 7 km
Ortszeit Relative Feuchte Sichtweite
Fr, 06.12. 21:00 95% 16 km
Fr, 06.12. 20:40 95% -
Fr, 06.12. 20:30 95% 22 km
Fr, 06.12. 20:20 95% -
Fr, 06.12. 20:10 94% -
Fr, 06.12. 20:00 95% 24 km
Fr, 06.12. 19:50 95% -
Fr, 06.12. 19:30 94% 23 km
Fr, 06.12. 19:00 94% 23 km
Ortszeit Niederschlagsmenge Niederschlagsart
Fr, 06.12. 19:00 4 l/m2 in 12 Std. Regen
Fr, 06.12. 13:00 2 l/m2 in 6 Std. Regen
Fr, 06.12. 7:00 0.1 l/m2 in 12 Std. Regen
Fr, 06.12. 1:00 0.0 l/m2 in 6 Std. -
Do, 05.12. 19:00 0.0 l/m2 in 12 Std. -
Do, 05.12. 13:00 0.0 l/m2 in 6 Std. -
Do, 05.12. 7:00 0.0 l/m2 in 12 Std. -
Do, 05.12. 1:00 0.0 l/m2 in 6 Std. -
Ortszeit Niederschlagsmenge Niederschlagsart
Fr, 06.12. 21:00 0.1 l/m2 in 1 Std. Regen
Fr, 06.12. 20:40 keine Meldung -
Fr, 06.12. 20:30 0.0 l/m2 in 1 Std. -
Fr, 06.12. 20:20 keine Meldung -
Fr, 06.12. 20:10 keine Meldung -
Fr, 06.12. 20:00 0.1 l/m2 in 1 Std. Regen
Fr, 06.12. 19:50 keine Meldung -
Fr, 06.12. 19:30 0.1 l/m2 in 1 Std. -
Fr, 06.12. 19:00 0.3 l/m2 in 1 Std. Regen
Ortszeit Stärke Spitze Richtung
km/h Bft. km/h Grad Sektor
Fr, 06.12. 19:00 11 2 29 190° S
Fr, 06.12. 13:00 14 3 36 200° S
Fr, 06.12. 7:00 19 3 41 230° SW
Fr, 06.12. 1:00 11 2 14 180° S
Do, 05.12. 19:00 9 2 19 210° SW
Do, 05.12. 13:00 9 2 15 240° SW
Do, 05.12. 7:00 4 1 7 180° S
Do, 05.12. 1:00 4 1 7 250° W
Ortszeit Stärke Spitze Richtung
km/h Bft. km/h Grad Sektor
Fr, 06.12. 21:00 9 2 20 180° S
Fr, 06.12. 20:40 11 2 - 180° S
Fr, 06.12. 20:30 13 3 20 190° S
Fr, 06.12. 20:20 13 3 - 190° S
Fr, 06.12. 20:10 11 2 - 180° S
Fr, 06.12. 20:00 14 3 25 190° S
Fr, 06.12. 19:50 14 3 - 190° S
Fr, 06.12. 19:30 11 2 18 180° S
Fr, 06.12. 19:00 11 2 18 190° S
Ortszeit Untergrenze Bedeckung Gattung
total tief tief mittel hoch
Fr, 06.12. 19:00 690 m 8/8 8/8 - - -
Fr, 06.12. 13:00 510 m 8/8 8/8 - - -
Fr, 06.12. 7:00 630 m 8/8 8/8 - - -
Fr, 06.12. 1:00 - - - - - -
Do, 05.12. 19:00 9000 m 7/8 0/8 - - -
Do, 05.12. 13:00 - 0/8 0/8 - - -
Do, 05.12. 7:00 - 0/8 0/8 - - -
Do, 05.12. 1:00 - 0/8 0/8 - - -
Ortszeit Bedeckungsgrad in Achtel und Wolkenuntergrenze
Fr, 06.12. 21:00 7(720m)
Fr, 06.12. 20:40 7(690m)
Fr, 06.12. 20:30 8(660m)
Fr, 06.12. 20:20 8(660m)
Fr, 06.12. 20:10 7(660m) 8(780m)
Fr, 06.12. 20:00 8(630m) 8(780m)
Fr, 06.12. 19:50 8(630m)
Fr, 06.12. 19:30 7(630m)
Fr, 06.12. 19:00 7(690m) 8(1800m) 8(2100m)
Ortszeit Luftdruck NN (hPa) Tendenz (hPa in 3 Std.)
Fr, 06.12. 19:00 1006 - 1,6
Fr, 06.12. 13:00 1010 - 1,4
Fr, 06.12. 7:00 1011 - 1,1
Fr, 06.12. 1:00 1015 - 2,2
Do, 05.12. 19:00 1018 - 1,2
Do, 05.12. 13:00 1020 - 1,0
Do, 05.12. 7:00 1020 - 0,4
Do, 05.12. 1:00 1021 - 1,3
Ortszeit Luftdruck NN (hPa) Tendenz (hPa in 3 Std.)
Fr, 06.12. 21:00 1005 - 1,4
Fr, 06.12. 20:40 1005 keine Meldung
Fr, 06.12. 20:30 1005 - 1,5
Fr, 06.12. 20:20 1005 keine Meldung
Fr, 06.12. 20:10 1005 keine Meldung
Fr, 06.12. 20:00 1005 - 1,3
Fr, 06.12. 19:50 1005 keine Meldung
Fr, 06.12. 19:30 1006 - 1,5
Fr, 06.12. 19:00 1006 - 1,6
Ortszeit Schneehöhe (cm)
Fr, 06.12. 19:00 0
Fr, 06.12. 13:00 0
Fr, 06.12. 7:00 0
Fr, 06.12. 1:00 0
Do, 05.12. 19:00 0
Do, 05.12. 13:00 0
Do, 05.12. 7:00 0
Do, 05.12. 1:00 0
Ortszeit Schneehöhe (cm)
Fr, 06.12. 21:00 0
Fr, 06.12. 20:40 0
Fr, 06.12. 20:30 0
Fr, 06.12. 20:20 0
Fr, 06.12. 20:10 0
Fr, 06.12. 20:00 0
Fr, 06.12. 19:50 0
Fr, 06.12. 19:30 0
Fr, 06.12. 19:00 0
Link zu dieser Seite / Seite empfehlen

Das Wetter in ...